Time;durP1;ratioP1;P1;durP2;ratioP2;P2;SDS_P1;SDS_P2;PMS_P1;PMS_P2;Temp;Humidity;BMP_temperature;BMP_pressure;BME280_temperature;BME280_humidity;BME280_pressure;Samples;Min_cycle;Max_cycle;Signal;HPM_P1;HPM_P2
2022/08/08 00:01:42;;;;;;;2.97;2.45;;;14.30;99.90;;;;;;5034099;28;20049;-81
2022/08/08 00:04:25;;;;;;;5.53;2.83;;;14.30;99.90;;;;;;5033974;28;20053;-80
2022/08/08 00:07:07;;;;;;;4.97;2.42;;;14.30;99.90;;;;;;5034254;28;20090;-79
2022/08/08 00:10:02;;;;;;;2.70;2.38;;;14.20;99.90;;;;;;5034940;28;20053;-83
2022/08/08 00:13:07;;;;;;;3.40;2.40;;;14.20;99.90;;;;;;5034669;28;20117;-82
2022/08/08 00:15:42;;;;;;;2.30;2.08;;;14.20;99.90;;;;;;5000653;28;20057;-82
2022/08/08 00:18:27;;;;;;;2.70;2.50;;;14.20;99.90;;;;;;5034494;28;20490;-79
2022/08/08 00:20:57;;;;;;;3.35;2.55;;;14.20;99.90;;;;;;5034090;28;20057;-83
2022/08/08 00:23:44;;;;;;;2.90;2.63;;;14.10;99.90;;;;;;5034320;28;20060;-81
2022/08/08 00:26:15;;;;;;;3.92;3.15;;;14.10;99.90;;;;;;5034511;28;20128;-81
2022/08/08 00:28:47;;;;;;;2.92;2.40;;;14.00;99.90;;;;;;5034253;28;20046;-82
2022/08/08 00:31:22;;;;;;;3.03;2.70;;;14.00;99.90;;;;;;5034205;28;20061;-82
2022/08/08 00:37:02;;;;;;;;;;;14.00;99.90;;;;;;5034457;28;20506;-83
2022/08/08 00:39:50;;;;;;;2.75;2.45;;;13.90;99.90;;;;;;5034153;28;19921;-83
2022/08/08 00:42:36;;;;;;;3.13;2.80;;;13.90;99.90;;;;;;5033977;28;20156;-83
2022/08/08 00:45:49;;;;;;;2.72;2.45;;;13.80;99.90;;;;;;5034327;28;20111;-80
2022/08/08 00:48:50;;;;;;;3.00;2.72;;;13.80;99.90;;;;;;4963911;28;20061;-82
2022/08/08 00:51:40;;;;;;;2.78;2.25;;;13.70;99.90;;;;;;5034153;28;20060;-84
2022/08/08 00:54:33;;;;;;;3.13;2.28;;;13.70;99.90;;;;;;5033702;28;20046;-83
2022/08/08 00:57:39;;;;;;;2.70;2.50;;;13.70;99.90;;;;;;5034068;28;20075;-81
2022/08/08 01:00:20;;;;;;;2.83;2.60;;;13.70;99.90;;;;;;5034099;28;20041;-81
2022/08/08 01:03:10;;;;;;;3.33;3.03;;;13.70;99.90;;;;;;5032800;28;20123;-83
2022/08/08 01:05:42;;;;;;;2.58;2.30;;;13.90;99.90;;;;;;5033575;28;20450;-84
2022/08/08 01:08:34;;;;;;;2.50;2.25;;;13.70;99.90;;;;;;5033355;28;20051;-81
2022/08/08 01:11:41;;;;;;;5.43;2.53;;;13.70;99.90;;;;;;5033894;28;20045;-83
2022/08/08 01:14:25;;;;;;;3.63;2.50;;;13.60;99.90;;;;;;5010172;28;20060;-82
2022/08/08 01:17:24;;;;;;;3.50;2.38;;;13.60;99.90;;;;;;5032252;28;20041;-83
2022/08/08 01:20:11;;;;;;;2.40;2.15;;;13.50;99.90;;;;;;5033745;28;20125;-83
2022/08/08 01:22:55;;;;;;;3.53;2.58;;;13.50;99.90;;;;;;5033477;28;20053;-81
2022/08/08 01:26:05;;;;;;;4.85;2.60;;;13.50;99.90;;;;;;5033319;28;20045;-84
2022/08/08 01:28:37;;;;;;;2.50;1.92;;;13.50;99.90;;;;;;5033618;28;20057;-82
2022/08/08 01:32:01;;;;;;;3.47;2.55;;;13.40;99.90;;;;;;5033588;28;20099;-79
2022/08/08 01:35:24;;;;;;;3.55;2.35;;;13.40;99.90;;;;;;5018523;28;20116;-82
2022/08/08 01:38:05;;;;;;;3.85;2.80;;;13.40;99.90;;;;;;4991428;28;20088;-82
2022/08/08 01:40:46;;;;;;;2.60;2.38;;;13.40;99.90;;;;;;4991030;28;20053;-82
2022/08/08 01:43:33;;;;;;;4.03;2.58;;;13.30;99.90;;;;;;5024597;28;20057;-83
2022/08/08 01:46:17;;;;;;;3.45;2.47;;;13.30;99.90;;;;;;5033378;28;20154;-82
2022/08/08 01:49:17;;;;;;;2.45;2.25;;;13.20;99.90;;;;;;5033307;28;20042;-81
2022/08/08 01:51:55;;;;;;;4.25;3.38;;;13.30;99.90;;;;;;5032908;28;20081;-81
2022/08/08 01:55:05;;;;;;;3.72;2.20;;;13.30;99.90;;;;;;5032716;28;20045;-83
2022/08/08 01:57:54;;;;;;;3.83;3.03;;;13.30;99.90;;;;;;5032788;28;20137;-83
2022/08/08 02:00:25;;;;;;;3.05;2.40;;;13.30;99.90;;;;;;5032997;28;20048;-82
2022/08/08 02:03:12;;;;;;;4.82;2.38;;;13.20;99.90;;;;;;5032891;28;20087;-83
2022/08/08 02:06:11;;;;;;;3.95;2.42;;;13.30;99.90;;;;;;5033241;28;20081;-83
2022/08/08 02:08:50;;;;;;;3.05;2.75;;;13.20;99.90;;;;;;5015298;28;20049;-81
2022/08/08 02:11:28;;;;;;;3.67;2.63;;;13.20;99.90;;;;;;5032874;28;20053;-82
2022/08/08 02:14:15;;;;;;;5.00;2.88;;;13.20;99.90;;;;;;5032984;28;20383;-82
2022/08/08 02:17:03;;;;;;;3.35;3.05;;;13.30;99.90;;;;;;5032930;28;20135;-84
2022/08/08 02:19:52;;;;;;;2.47;2.20;;;13.20;99.90;;;;;;5032623;28;20045;-81
2022/08/08 02:22:49;;;;;;;5.05;3.00;;;13.30;99.90;;;;;;5033066;28;20081;-82
2022/08/08 02:25:36;;;;;;;2.65;2.42;;;13.30;99.90;;;;;;5032790;28;20049;-83
2022/08/08 02:28:38;;;;;;;5.00;3.10;;;13.30;99.90;;;;;;5032182;28;20042;-82
2022/08/08 02:31:23;;;;;;;2.70;2.50;;;13.20;99.90;;;;;;5032762;28;20053;-81
2022/08/08 02:34:10;;;;;;;2.67;2.22;;;13.20;99.90;;;;;;5015059;28;20139;-82
2022/08/08 02:36:49;;;;;;;5.82;3.20;;;13.20;99.90;;;;;;5032745;28;20049;-83
2022/08/08 02:39:30;;;;;;;2.70;2.00;;;13.20;99.90;;;;;;5032365;28;20041;-83
2022/08/08 02:42:11;;;;;;;4.15;2.45;;;13.20;99.90;;;;;;5032342;28;20045;-81
2022/08/08 02:44:39;;;;;;;3.40;2.75;;;13.10;99.90;;;;;;5032636;28;20050;-82
2022/08/08 02:47:08;;;;;;;2.78;2.53;;;13.00;99.90;;;;;;5032502;28;20049;-83
2022/08/08 02:49:57;;;;;;;9.40;2.80;;;13.00;99.90;;;;;;5032665;28;20119;-81
2022/08/08 02:52:44;;;;;;;3.10;2.80;;;13.00;99.90;;;;;;5002570;28;20172;-81
2022/08/08 02:55:52;;;;;;;3.78;2.55;;;13.00;99.90;;;;;;5036563;28;20119;-83
2022/08/08 02:59:00;;;;;;;5.13;2.25;;;12.90;99.90;;;;;;5036512;28;20136;-83
2022/08/08 03:02:00;;;;;;;4.85;2.35;;;12.90;99.90;;;;;;5034942;28;20056;-82
2022/08/08 03:05:08;;;;;;;2.28;2.08;;;12.90;99.90;;;;;;5036294;28;20053;-82
2022/08/08 03:07:37;;;;;;;2.88;2.40;;;12.90;99.90;;;;;;5036031;28;20527;-82
2022/08/08 03:10:31;;;;;;;4.85;2.97;;;12.90;99.90;;;;;;5036313;28;20045;-81
2022/08/08 03:13:29;;;;;;;3.05;2.40;;;12.90;99.90;;;;;;5035877;28;20111;-83
2022/08/08 03:16:16;;;;;;;2.38;2.17;;;12.90;99.90;;;;;;5036896;28;20109;-83
2022/08/08 03:18:59;;;;;;;2.70;2.50;;;12.90;99.90;;;;;;5035859;28;20099;-81
2022/08/08 03:21:24;;;;;;;3.00;2.40;;;12.80;99.90;;;;;;5035756;28;20045;-80
2022/08/08 03:23:50;;;;;;;3.88;2.45;;;12.80;99.90;;;;;;5035679;28;20056;-81
2022/08/08 03:26:25;;;;;;;4.93;2.90;;;12.80;99.90;;;;;;5035542;28;20041;-84
2022/08/08 03:28:58;;;;;;;2.85;2.38;;;12.80;99.90;;;;;;5036050;28;20049;-84
2022/08/08 03:34:12;;;;;;;4.63;2.60;;;12.80;99.90;;;;;;5035965;28;20053;-82
2022/08/08 03:36:40;;;;;;;3.70;2.25;;;12.70;99.90;;;;;;5036393;28;20056;-83
2022/08/08 03:39:10;;;;;;;2.47;2.00;;;12.70;99.90;;;;;;5035505;28;20045;-84
2022/08/08 03:41:36;;;;;;;2.65;2.40;;;12.70;99.90;;;;;;5035347;28;20061;-83
2022/08/08 03:44:02;;;;;;;3.40;2.72;;;12.70;99.90;;;;;;5035386;28;20051;-83
2022/08/08 03:46:28;;;;;;;3.10;2.40;;;12.70;99.90;;;;;;5035256;28;20049;-81
2022/08/08 03:48:58;;;;;;;3.28;2.97;;;12.70;99.90;;;;;;5035117;28;20095;-82
2022/08/08 03:51:24;;;;;;;2.28;2.10;;;12.70;99.90;;;;;;5035688;28;20069;-82
2022/08/08 03:53:53;;;;;;;5.00;2.70;;;12.60;99.90;;;;;;5035142;28;20052;-81
2022/08/08 03:56:21;;;;;;;4.45;2.63;;;12.60;99.90;;;;;;5035504;28;20119;-79
2022/08/08 03:58:51;;;;;;;4.30;2.70;;;12.60;99.90;;;;;;5035138;28;20046;-82
2022/08/08 04:01:18;;;;;;;4.15;2.58;;;12.60;99.90;;;;;;5035171;28;20176;-83
2022/08/08 04:03:46;;;;;;;2.65;2.15;;;12.60;99.90;;;;;;5034405;28;20049;-81
2022/08/08 04:06:12;;;;;;;3.20;2.90;;;12.60;99.90;;;;;;5035700;28;20068;-83
2022/08/08 04:08:38;;;;;;;2.55;2.35;;;12.60;99.90;;;;;;5035313;28;20046;-83
2022/08/08 04:11:05;;;;;;;3.00;2.78;;;12.70;99.90;;;;;;5036403;28;20037;-81
2022/08/08 04:13:31;;;;;;;2.88;2.40;;;12.80;99.90;;;;;;5038436;28;20048;-85
2022/08/08 04:15:57;;;;;;;3.70;2.70;;;12.80;99.90;;;;;;5037544;28;20474;-83
2022/08/08 04:18:23;;;;;;;4.65;2.58;;;12.90;99.90;;;;;;5037253;28;20089;-84
2022/08/08 04:20:48;;;;;;;4.38;2.50;;;13.00;99.90;;;;;;5035959;28;20049;-79
2022/08/08 04:23:14;;;;;;;4.82;2.65;;;13.10;99.90;;;;;;5018125;28;20054;-84
2022/08/08 04:25:40;;;;;;;5.32;3.03;;;13.20;99.90;;;;;;5035204;28;20049;-84
2022/08/08 04:28:07;;;;;;;3.20;2.60;;;13.30;99.90;;;;;;5035000;28;20045;-84
2022/08/08 04:30:33;;;;;;;3.78;2.60;;;13.40;99.90;;;;;;5034688;28;20060;-85
2022/08/08 04:32:59;;;;;;;3.13;2.92;;;13.60;99.90;;;;;;5034827;28;20089;-79
2022/08/08 04:35:25;;;;;;;3.70;3.00;;;13.70;99.90;;;;;;5034965;28;20038;-80
2022/08/08 04:37:52;;;;;;;4.20;2.63;;;13.70;99.90;;;;;;5034332;28;20516;-83
2022/08/08 04:40:18;;;;;;;3.28;2.33;;;13.80;99.90;;;;;;5036010;28;20096;-86
2022/08/08 04:42:45;;;;;;;3.58;3.00;;;13.90;99.90;;;;;;5037445;28;20091;-82
2022/08/08 04:45:11;;;;;;;3.38;2.60;;;14.00;99.90;;;;;;5037241;28;20064;-81
2022/08/08 04:47:37;;;;;;;5.55;3.92;;;14.10;99.90;;;;;;5037744;28;20124;-83
2022/08/08 04:50:04;;;;;;;4.72;3.03;;;14.10;99.90;;;;;;5037638;28;20045;-82
2022/08/08 04:52:29;;;;;;;4.50;2.75;;;14.20;99.90;;;;;;5038075;28;20105;-82
2022/08/08 04:54:55;;;;;;;3.55;2.70;;;14.20;99.90;;;;;;5033150;28;20155;-83
2022/08/08 04:57:21;;;;;;;3.55;3.20;;;14.20;99.90;;;;;;5033659;28;20060;-82
2022/08/08 04:59:47;;;;;;;4.00;3.40;;;14.20;99.90;;;;;;5033885;28;20037;-79
2022/08/08 05:02:13;;;;;;;5.95;3.58;;;14.20;99.90;;;;;;5033849;28;20408;-78
2022/08/08 05:04:38;;;;;;;4.28;3.58;;;14.20;99.90;;;;;;5033683;28;20469;-81
2022/08/08 05:07:04;;;;;;;4.82;3.13;;;14.30;99.90;;;;;;5033321;28;20494;-79
2022/08/08 05:09:30;;;;;;;3.92;2.75;;;14.30;99.90;;;;;;5033277;28;20446;-84
2022/08/08 05:11:56;;;;;;;4.75;3.83;;;14.30;99.90;;;;;;5032192;28;20531;-79
2022/08/08 05:14:22;;;;;;;4.60;3.25;;;14.40;99.90;;;;;;5033709;28;20049;-82
2022/08/08 05:16:48;;;;;;;5.40;3.45;;;14.50;99.90;;;;;;5032223;28;20045;-81
2022/08/08 05:19:14;;;;;;;4.72;3.17;;;14.40;99.90;;;;;;5033208;28;20095;-81
2022/08/08 05:21:41;;;;;;;4.07;3.58;;;14.50;99.90;;;;;;5033586;28;20471;-81
2022/08/08 05:24:08;;;;;;;3.60;2.80;;;14.50;99.90;;;;;;5033109;28;20138;-82
2022/08/08 05:26:34;;;;;;;7.55;3.60;;;14.50;99.90;;;;;;5032399;28;20051;-80
2022/08/08 05:29:02;;;;;;;6.97;3.58;;;14.60;99.90;;;;;;5032970;28;20049;-82
2022/08/08 05:31:29;;;;;;;3.72;2.97;;;14.70;99.90;;;;;;5033218;28;20049;-80
2022/08/08 05:33:55;;;;;;;7.68;3.15;;;14.70;99.90;;;;;;5032867;28;20454;-84
2022/08/08 05:36:24;;;;;;;4.43;3.28;;;14.90;99.90;;;;;;5032798;28;20045;-81
2022/08/08 05:38:51;;;;;;;7.53;3.30;;;14.90;99.90;;;;;;5032779;28;20044;-81
2022/08/08 05:41:22;;;;;;;4.18;3.75;;;15.00;99.90;;;;;;5032729;28;20053;-81
2022/08/08 05:43:48;;;;;;;3.78;2.78;;;15.00;99.90;;;;;;5032754;28;20098;-81
2022/08/08 05:46:15;;;;;;;6.70;3.30;;;15.00;99.90;;;;;;5032581;28;20041;-80
2022/08/08 05:48:42;;;;;;;3.53;3.22;;;15.10;99.90;;;;;;5032544;28;20049;-83
2022/08/08 05:51:09;;;;;;;7.60;3.88;;;15.10;99.90;;;;;;5032539;28;20042;-82
2022/08/08 05:53:34;;;;;;;4.63;3.17;;;15.20;99.90;;;;;;5032143;28;20464;-82
2022/08/08 05:56:01;;;;;;;3.78;3.45;;;15.20;99.90;;;;;;5032465;28;20096;-80
2022/08/08 05:58:32;;;;;;;12.05;3.92;;;15.20;99.90;;;;;;5032396;28;20107;-80
2022/08/08 06:01:00;;;;;;;5.97;3.63;;;15.30;99.90;;;;;;5032593;28;20046;-81
2022/08/08 06:03:26;;;;;;;4.55;3.22;;;15.30;99.90;;;;;;5032259;28;20057;-81
2022/08/08 06:05:56;;;;;;;5.90;3.60;;;15.30;99.90;;;;;;5032509;28;20045;-82
2022/08/08 06:08:32;;;;;;;6.40;3.15;;;15.40;99.90;;;;;;5032446;28;20133;-80
2022/08/08 06:10:58;;;;;;;6.22;3.00;;;15.40;99.90;;;;;;5032550;28;20048;-83
2022/08/08 06:13:29;;;;;;;2.75;2.47;;;15.50;99.90;;;;;;5032185;28;20042;-80
2022/08/08 06:15:55;;;;;;;3.80;3.22;;;15.70;99.90;;;;;;5032182;28;20049;-79
2022/08/08 06:18:23;;;;;;;4.65;2.70;;;15.90;99.90;;;;;;5032091;28;20095;-83
2022/08/08 06:21:00;;;;;;;4.90;3.25;;;16.10;99.90;;;;;;5032247;28;20442;-80
2022/08/08 06:23:26;;;;;;;5.07;2.53;;;16.20;99.90;;;;;;5032520;28;20034;-83
2022/08/08 06:26:03;;;;;;;10.85;3.75;;;16.40;99.90;;;;;;5031119;28;20515;-84
2022/08/08 06:28:34;;;;;;;4.07;2.22;;;16.60;99.90;;;;;;5032115;28;20045;-82
2022/08/08 06:31:05;;;;;;;2.60;2.40;;;16.70;99.90;;;;;;5032763;28;20072;-85
2022/08/08 06:33:56;;;;;;;5.15;3.40;;;16.80;99.90;;;;;;5015122;28;20046;-83
2022/08/08 06:36:37;;;;;;;6.57;2.63;;;16.90;99.90;;;;;;5027376;28;20056;-83
2022/08/08 06:39:05;;;;;;;5.28;2.83;;;17.00;99.90;;;;;;5032736;28;20041;-85
2022/08/08 06:41:40;;;;;;;4.70;2.63;;;17.10;99.90;;;;;;5032307;28;20049;-81
2022/08/08 06:44:10;;;;;;;3.45;2.60;;;17.30;99.90;;;;;;5032362;28;20107;-83
2022/08/08 06:46:37;;;;;;;8.00;2.72;;;17.40;99.90;;;;;;5031394;28;20085;-85
2022/08/08 06:49:03;;;;;;;4.63;2.83;;;17.70;99.90;;;;;;5032109;28;20157;-81
2022/08/08 06:51:29;;;;;;;3.88;2.28;;;18.10;99.90;;;;;;5032677;28;20056;-81
2022/08/08 06:53:58;;;;;;;4.75;3.38;;;18.60;99.90;;;;;;5032163;28;20057;-84
2022/08/08 06:56:24;;;;;;;5.25;2.63;;;19.60;99.90;;;;;;5032290;28;20093;-83
2022/08/08 06:58:50;;;;;;;3.22;2.63;;;20.20;99.90;;;;;;5032008;28;20377;-82
2022/08/08 07:01:16;;;;;;;6.05;2.83;;;20.50;99.90;;;;;;5032228;28;20182;-88
2022/08/08 07:03:51;;;;;;;2.97;2.20;;;20.60;99.90;;;;;;5031145;28;20491;-86
2022/08/08 07:06:22;;;;;;;3.30;2.67;;;20.90;99.90;;;;;;5032494;28;20056;-81
2022/08/08 07:08:52;;;;;;;3.20;2.30;;;21.20;99.90;;;;;;5032072;28;20502;-84
2022/08/08 07:11:21;;;;;;;2.42;2.15;;;21.70;99.90;;;;;;5032369;28;20041;-85
2022/08/08 07:13:52;;;;;;;7.20;2.95;;;21.80;99.90;;;;;;5032316;28;20084;-83
2022/08/08 07:16:27;;;;;;;6.55;2.30;;;21.60;99.90;;;;;;5031776;28;20541;-86
2022/08/08 07:19:17;;;;;;;3.63;2.40;;;21.50;99.90;;;;;;5031291;28;20424;-84
2022/08/08 07:21:58;;;;;;;4.95;2.35;;;21.70;99.90;;;;;;5031987;28;20053;-83
2022/08/08 07:24:34;;;;;;;5.00;2.05;;;22.60;99.90;;;;;;5031956;28;20045;-82
2022/08/08 07:27:01;;;;;;;2.60;2.20;;;23.40;99.90;;;;;;5031721;28;20456;-84
2022/08/08 07:29:28;;;;;;;3.92;1.88;;;23.80;99.90;;;;;;5031752;28;20071;-84
2022/08/08 07:31:55;;;;;;;4.65;2.13;;;23.60;99.90;;;;;;5030941;28;20046;-83
2022/08/08 07:34:22;;;;;;;7.20;2.63;;;23.40;98.40;;;;;;5031786;28;20132;-83
2022/08/08 07:36:48;;;;;;;3.40;2.17;;;23.70;99.70;;;;;;5032125;28;20049;-83
2022/08/08 07:39:22;;;;;;;6.50;2.97;;;24.30;99.20;;;;;;5032743;28;20045;-81
2022/08/08 07:41:48;;;;;;;2.92;1.55;;;24.20;98.10;;;;;;5035532;28;20085;-81
2022/08/08 07:44:15;;;;;;;4.90;1.70;;;;;;;;;;5034388;28;20045;-79
2022/08/08 07:46:41;;;;;;;3.95;1.70;;;;;;;;;;5035148;28;20062;-80
2022/08/08 07:49:07;;;;;;;2.25;1.80;;;26.00;96.20;;;;;;5034485;28;20052;-77
2022/08/08 07:51:34;;;;;;;3.55;1.80;;;26.50;95.80;;;;;;5035183;28;20077;-84
2022/08/08 07:54:12;;;;;;;3.28;1.40;;;26.20;94.80;;;;;;5034768;28;20046;-82
2022/08/08 07:57:18;;;;;;;4.88;1.50;;;26.70;93.80;;;;;;5035295;28;20519;-83
2022/08/08 08:00:01;;;;;;;4.05;1.73;;;26.80;90.30;;;;;;5035177;28;20132;-80
2022/08/08 08:02:57;;;;;;;4.00;1.70;;;27.30;90.20;;;;;;5034792;28;20528;-82
2022/08/08 08:05:24;;;;;;;2.58;1.50;;;27.10;91.30;;;;;;5028741;28;20149;-80
2022/08/08 08:08:05;;;;;;;2.70;2.17;;;26.00;92.70;;;;;;5034885;28;20045;-79
2022/08/08 08:10:34;;;;;;;2.80;1.75;;;25.60;93.20;;;;;;5035003;28;20057;-85
2022/08/08 08:13:19;;;;;;;1.70;1.45;;;25.30;93.30;;;;;;5034482;28;20061;-81
2022/08/08 08:15:58;;;;;;;5.10;1.73;;;25.00;91.80;;;;;;5034747;28;20046;-80
2022/08/08 08:18:24;;;;;;;2.75;1.60;;;24.20;92.40;;;;;;5034341;28;20454;-83
2022/08/08 08:20:52;;;;;;;2.65;1.73;;;23.70;94.10;;;;;;5034373;28;20049;-80
2022/08/08 08:23:18;;;;;;;3.50;1.85;;;23.10;94.80;;;;;;5034328;28;20046;-82
2022/08/08 08:25:44;;;;;;;2.20;1.42;;;23.00;95.00;;;;;;5034647;28;20124;-79
2022/08/08 08:28:10;;;;;;;2.42;1.33;;;23.40;95.30;;;;;;5034853;28;20041;-83
2022/08/08 08:30:37;;;;;;;4.35;1.83;;;22.70;95.30;;;;;;5033952;28;20454;-82
2022/08/08 08:33:03;;;;;;;3.25;1.52;;;22.80;95.40;;;;;;5034493;28;20053;-80
2022/08/08 08:35:28;;;;;;;2.75;1.70;;;23.10;95.10;;;;;;5034800;28;20087;-80
2022/08/08 08:37:54;;;;;;;3.03;1.60;;;22.90;95.40;;;;;;5034242;28;20128;-83
2022/08/08 08:40:21;;;;;;;7.22;1.70;;;22.60;95.60;;;;;;5034301;28;20109;-82
2022/08/08 08:42:48;;;;;;;1.75;1.50;;;22.00;96.30;;;;;;5033084;28;20128;-82
2022/08/08 08:45:14;;;;;;;4.22;1.30;;;22.00;96.40;;;;;;5033241;28;20511;-79
2022/08/08 08:47:42;;;;;;;1.50;1.40;;;23.30;96.00;;;;;;5034193;28;20475;-82
2022/08/08 08:50:09;;;;;;;1.77;1.40;;;24.40;94.30;;;;;;5033788;28;20143;-82
2022/08/08 08:52:41;;;;;;;3.20;1.35;;;24.70;93.40;;;;;;5034354;28;20089;-78
2022/08/08 08:55:12;;;;;;;3.13;1.55;;;25.00;93.00;;;;;;5033953;28;20065;-85
2022/08/08 08:57:41;;;;;;;1.63;1.20;;;24.40;92.20;;;;;;5033991;28;20501;-81
2022/08/08 09:00:09;;;;;;;1.77;1.10;;;24.20;93.30;;;;;;5033877;28;20053;-80
2022/08/08 09:02:37;;;;;;;3.13;1.20;;;24.20;93.20;;;;;;5034366;28;20053;-81
2022/08/08 09:05:08;;;;;;;1.42;1.30;;;23.70;93.20;;;;;;5034164;28;20593;-80
2022/08/08 09:07:35;;;;;;;3.33;1.45;;;23.80;93.30;;;;;;5034261;28;20148;-82
2022/08/08 09:10:03;;;;;;;2.33;1.60;;;24.00;93.20;;;;;;5033594;28;20087;-82
2022/08/08 09:12:31;;;;;;;3.22;1.40;;;23.70;93.20;;;;;;5033596;28;20049;-79
2022/08/08 09:14:57;;;;;;;2.92;1.48;;;24.50;93.10;;;;;;5033852;28;20054;-83
2022/08/08 09:17:24;;;;;;;2.60;1.40;;;25.80;92.40;;;;;;5033661;28;20072;-80
2022/08/08 09:19:57;;;;;;;1.77;1.10;;;26.60;91.70;;;;;;5033679;28;20053;-81
2022/08/08 09:22:23;;;;;;;1.65;1.10;;;26.50;85.50;;;;;;5033436;28;20087;-80
2022/08/08 09:24:51;;;;;;;1.40;1.27;;;26.70;90.30;;;;;;5032634;28;20095;-78
2022/08/08 09:27:18;;;;;;;1.42;1.15;;;27.60;89.10;;;;;;5033443;28;20053;-81
2022/08/08 09:30:03;;;;;;;4.03;1.30;;;28.30;88.10;;;;;;5032886;28;20476;-80
2022/08/08 09:32:40;;;;;;;1.92;1.02;;;28.00;81.90;;;;;;5033587;28;20057;-82
2022/08/08 09:35:19;;;;;;;1.15;1.00;;;27.90;83.10;;;;;;5033219;28;20080;-80
2022/08/08 09:37:50;;;;;;;2.92;1.25;;;27.70;85.00;;;;;;5032067;28;20048;-78
2022/08/08 09:40:18;;;;;;;1.43;0.87;;;28.10;80.80;;;;;;5031967;28;20124;-81
2022/08/08 09:42:46;;;;;;;3.03;1.10;;;27.70;83.80;;;;;;5033105;28;20438;-79
2022/08/08 09:45:22;;;;;;;6.50;1.83;;;28.00;83.30;;;;;;5033894;28;20058;-83
2022/08/08 09:47:49;;;;;;;2.40;0.93;;;27.30;81.70;;;;;;5033040;28;20075;-78
2022/08/08 09:50:17;;;;;;;1.42;1.05;;;26.30;84.60;;;;;;5031643;28;20041;-82
2022/08/08 09:52:48;;;;;;;1.35;1.00;;;25.90;85.10;;;;;;5033080;28;20056;-80
2022/08/08 09:55:15;;;;;;;1.52;1.27;;;25.50;84.40;;;;;;5031768;28;20053;-81
2022/08/08 09:57:43;;;;;;;1.75;1.42;;;24.60;87.40;;;;;;5033252;28;20052;-82
2022/08/08 10:00:11;;;;;;;3.17;1.65;;;24.00;87.20;;;;;;5033109;28;20046;-83
2022/08/08 10:02:43;;;;;;;2.83;1.33;;;23.80;88.80;;;;;;5032044;28;20413;-82
2022/08/08 10:05:12;;;;;;;2.15;1.10;;;23.70;89.50;;;;;;5032945;28;20067;-81
2022/08/08 10:07:49;;;;;;;0.80;0.77;;;23.50;90.00;;;;;;5032752;28;20106;-83
2022/08/08 10:10:25;;;;;;;1.15;1.05;;;22.90;90.10;;;;;;5032657;28;20093;-83
2022/08/08 10:12:52;;;;;;;2.35;2.15;;;22.60;90.70;;;;;;5032994;28;20407;-83
2022/08/08 10:15:17;;;;;;;1.15;1.00;;;22.50;90.90;;;;;;5032585;28;20037;-84
2022/08/08 10:17:49;;;;;;;1.30;1.20;;;22.40;91.00;;;;;;5032801;28;20052;-81
2022/08/08 10:20:15;;;;;;;4.30;1.30;;;22.20;91.70;;;;;;5032492;28;20441;-80
2022/08/08 10:22:53;;;;;;;3.63;1.13;;;22.10;91.70;;;;;;5032881;28;20045;-79
2022/08/08 10:25:20;;;;;;;1.55;1.45;;;22.00;92.00;;;;;;5032884;28;20048;-82
2022/08/08 10:27:50;;;;;;;2.45;1.30;;;22.00;92.20;;;;;;5032832;28;20084;-81
2022/08/08 10:30:17;;;;;;;2.22;1.40;;;22.20;92.30;;;;;;5032460;28;20037;-83
2022/08/08 10:32:50;;;;;;;1.05;0.93;;;22.20;92.50;;;;;;5032531;28;20050;-82
2022/08/08 10:35:17;;;;;;;3.70;1.30;;;22.30;93.00;;;;;;5032490;28;20107;-83
2022/08/08 10:37:55;;;;;;;5.57;1.55;;;22.30;93.00;;;;;;5032384;28;20056;-83
2022/08/08 10:40:24;;;;;;;2.92;1.27;;;22.40;93.30;;;;;;5032251;28;20132;-83
2022/08/08 10:42:55;;;;;;;4.53;1.40;;;22.50;92.90;;;;;;5032539;28;20597;-81
2022/08/08 10:45:21;;;;;;;1.60;1.40;;;22.60;92.90;;;;;;5032394;28;20041;-82
2022/08/08 10:47:58;;;;;;;2.38;1.40;;;22.60;92.70;;;;;;5032385;28;20045;-82
2022/08/08 10:50:35;;;;;;;2.10;1.42;;;22.50;92.90;;;;;;5031504;28;20038;-81
2022/08/08 10:53:08;;;;;;;1.73;1.20;;;22.70;92.90;;;;;;5032182;28;20427;-81
2022/08/08 10:55:38;;;;;;;1.30;1.10;;;22.80;92.80;;;;;;5032339;28;20403;-79
2022/08/08 10:58:09;;;;;;;4.57;1.45;;;23.00;92.60;;;;;;5032774;28;20084;-79
2022/08/08 11:00:41;;;;;;;1.58;1.10;;;23.00;92.70;;;;;;5032431;28;20081;-79
2022/08/08 11:03:13;;;;;;;1.63;1.20;;;23.10;92.70;;;;;;5032694;28;20045;-81
2022/08/08 11:05:56;;;;;;;1.63;1.27;;;23.30;92.70;;;;;;5032192;28;20053;-80
2022/08/08 11:08:30;;;;;;;4.32;1.40;;;23.20;92.70;;;;;;5032305;28;20046;-81
2022/08/08 11:11:06;;;;;;;3.65;1.30;;;23.30;93.10;;;;;;5032538;28;20059;-82
2022/08/08 11:13:43;;;;;;;3.15;1.33;;;23.10;92.50;;;;;;5033654;28;20499;-81
2022/08/08 11:16:18;;;;;;;1.75;1.08;;;23.10;92.60;;;;;;5035784;28;20052;-79
2022/08/08 11:18:47;;;;;;;2.22;1.10;;;23.10;92.30;;;;;;5036016;28;20072;-80
2022/08/08 11:21:14;;;;;;;7.70;2.28;;;23.20;92.20;;;;;;5035792;28;20110;-81
2022/08/08 11:23:42;;;;;;;1.48;1.10;;;23.10;92.30;;;;;;5035690;28;20045;-81
2022/08/08 11:26:11;;;;;;;4.07;1.40;;;23.00;92.50;;;;;;5035702;28;20048;-81
2022/08/08 11:28:38;;;;;;;0.93;0.93;;;23.00;92.70;;;;;;5035433;28;20378;-80
2022/08/08 11:31:04;;;;;;;3.45;1.30;;;23.00;92.70;;;;;;5034333;28;20053;-78
2022/08/08 11:33:33;;;;;;;1.63;1.33;;;22.90;92.50;;;;;;5036096;28;20041;-82
2022/08/08 11:35:59;;;;;;;3.55;1.20;;;23.10;92.50;;;;;;5036044;28;20108;-80
2022/08/08 11:38:25;;;;;;;2.15;1.10;;;23.00;92.60;;;;;;5035714;28;20113;-77
2022/08/08 11:40:52;;;;;;;2.88;1.33;;;22.90;92.40;;;;;;5035295;28;20054;-81
2022/08/08 11:43:21;;;;;;;3.20;1.05;;;22.80;92.40;;;;;;5035227;28;20561;-79
2022/08/08 11:45:50;;;;;;;2.35;1.35;;;22.70;92.70;;;;;;5035305;28;20041;-80
2022/08/08 11:48:17;;;;;;;3.67;1.30;;;22.70;92.60;;;;;;5035454;28;20045;-80
2022/08/08 11:50:44;;;;;;;1.67;1.20;;;22.60;92.40;;;;;;5034887;28;20366;-78
2022/08/08 11:53:11;;;;;;;6.75;1.23;;;22.60;92.40;;;;;;5035196;28;20052;-83
2022/08/08 11:55:49;;;;;;;2.35;1.25;;;22.60;92.50;;;;;;5035065;28;20061;-82
2022/08/08 11:58:16;;;;;;;3.25;1.33;;;22.30;92.50;;;;;;5035644;28;20069;-82
2022/08/08 12:00:46;;;;;;;2.75;0.98;;;22.20;92.90;;;;;;5034987;28;20049;-78
2022/08/08 12:03:32;;;;;;;1.80;1.30;;;22.10;93.30;;;;;;5035552;28;20111;-81
2022/08/08 12:05:59;;;;;;;1.52;1.13;;;22.00;93.80;;;;;;5017572;28;20476;-82
2022/08/08 12:08:33;;;;;;;2.40;1.50;;;22.20;93.30;;;;;;5034738;28;20053;-80
2022/08/08 12:11:01;;;;;;;2.35;1.15;;;22.20;94.00;;;;;;5035257;28;20099;-79
2022/08/08 12:13:27;;;;;;;1.05;0.98;;;22.30;93.50;;;;;;5034741;28;20107;-81
2022/08/08 12:15:54;;;;;;;2.58;1.63;;;22.40;93.30;;;;;;5034602;28;20041;-80
2022/08/08 12:18:24;;;;;;;2.33;1.33;;;22.60;93.30;;;;;;5034994;28;20096;-80
2022/08/08 12:20:54;;;;;;;1.77;1.33;;;22.70;93.10;;;;;;5034669;28;20057;-79
2022/08/08 12:23:35;;;;;;;3.00;1.10;;;22.50;92.80;;;;;;5035498;28;20600;-80
2022/08/08 12:26:08;;;;;;;1.48;1.27;;;22.60;92.80;;;;;;5034015;28;20049;-81
2022/08/08 12:28:34;;;;;;;1.98;1.10;;;22.60;92.60;;;;;;5033590;28;20046;-81
2022/08/08 12:31:09;;;;;;;1.45;1.35;;;22.60;92.70;;;;;;5034496;28;20041;-80
2022/08/08 12:33:39;;;;;;;2.83;1.40;;;22.70;92.60;;;;;;5033498;28;20050;-82
2022/08/08 12:36:14;;;;;;;3.00;1.50;;;22.80;92.40;;;;;;5034426;28;20065;-78
2022/08/08 12:38:50;;;;;;;2.13;1.20;;;22.90;92.80;;;;;;5034227;28;20468;-79
2022/08/08 12:41:16;;;;;;;1.50;1.40;;;22.90;92.70;;;;;;5034360;28;20050;-81
2022/08/08 12:43:41;;;;;;;3.75;1.30;;;22.80;92.60;;;;;;5034305;28;20037;-84
2022/08/08 12:46:14;;;;;;;2.70;1.25;;;22.80;92.20;;;;;;5034143;28;20049;-82
2022/08/08 12:48:41;;;;;;;;;;;22.90;92.60;;;;;;5034757;28;20076;-80
2022/08/08 12:51:18;;;;;;;1.20;1.10;;;22.80;92.60;;;;;;5033221;28;19921;-83
2022/08/08 12:53:58;;;;;;;2.78;1.73;;;23.00;92.70;;;;;;5034403;28;20045;-78
2022/08/08 12:56:38;;;;;;;3.33;1.80;;;23.20;92.80;;;;;;5033928;28;20061;-77
2022/08/08 12:59:15;;;;;;;2.60;1.40;;;23.30;92.30;;;;;;5034073;28;20041;-79
2022/08/08 13:01:41;;;;;;;1.83;1.27;;;23.10;92.40;;;;;;5033821;28;20124;-81
2022/08/08 13:04:18;;;;;;;1.27;1.17;;;23.10;92.60;;;;;;5033799;28;20052;-83
2022/08/08 13:07:03;;;;;;;2.95;1.50;;;23.00;93.00;;;;;;5033838;28;20073;-80
2022/08/08 13:09:34;;;;;;;1.40;1.30;;;22.80;93.20;;;;;;5033413;28;20527;-78
2022/08/08 13:12:00;;;;;;;1.63;1.52;;;22.80;93.30;;;;;;5033757;28;20049;-83
2022/08/08 13:14:42;;;;;;;1.30;1.20;;;22.60;93.10;;;;;;5034504;28;20045;-83
2022/08/08 13:17:08;;;;;;;4.95;2.10;;;22.50;93.70;;;;;;5033618;28;20060;-81
2022/08/08 13:19:35;;;;;;;5.32;1.60;;;22.60;93.50;;;;;;5033260;28;20499;-80
2022/08/08 13:22:01;;;;;;;1.70;1.60;;;22.70;93.60;;;;;;5033608;28;20408;-81
2022/08/08 13:24:28;;;;;;;6.18;1.40;;;22.80;93.50;;;;;;5033967;28;20052;-82
2022/08/08 13:27:11;;;;;;;2.70;1.52;;;23.00;93.40;;;;;;5033789;28;20085;-82
2022/08/08 13:29:53;;;;;;;2.45;1.60;;;22.90;93.70;;;;;;5033612;28;20048;-81